createdAt,value
2022-10-17T00:00:42.417Z,101008.44
2022-10-17T00:05:47.209Z,101013.88
2022-10-17T00:10:58.475Z,101013.97
2022-10-17T00:16:01.239Z,101027.56
2022-10-17T00:21:04.099Z,101020.56
2022-10-17T00:26:08.103Z,101023.31
2022-10-17T00:31:10.828Z,101023.38
2022-10-17T00:36:15.706Z,101025.84
2022-10-17T00:41:22.089Z,101024.81
2022-10-17T00:46:26.382Z,101025.22
2022-10-17T00:51:34.206Z,101023.66
2022-10-17T00:56:40.391Z,101023.50
2022-10-17T01:01:49.721Z,101017.38
2022-10-17T01:06:52.308Z,101019.06
2022-10-17T01:12:05.539Z,101020.00
2022-10-17T01:17:14.758Z,101017.59
2022-10-17T01:22:24.563Z,101017.38
2022-10-17T01:27:38.710Z,101017.75
2022-10-17T01:32:48.109Z,101016.44
2022-10-17T01:37:57.383Z,101019.81
2022-10-17T01:43:05.372Z,101007.97
2022-10-17T01:48:16.292Z,101016.97
2022-10-17T01:53:23.903Z,101029.34
2022-10-17T01:58:31.565Z,101013.94
2022-10-17T02:03:36.879Z,101009.91
2022-10-17T02:08:44.219Z,101003.88
2022-10-17T02:14:04.619Z,101004.66
2022-10-17T02:19:27.209Z,101000.63
2022-10-17T02:24:36.709Z,101012.19
2022-10-17T02:29:47.636Z,101012.22
2022-10-17T02:34:53.882Z,101011.41
2022-10-17T02:39:58.834Z,101013.41
2022-10-17T02:45:03.112Z,101013.00
2022-10-17T02:50:11.010Z,101020.41
2022-10-17T02:55:18.872Z,101020.38
2022-10-17T03:00:26.056Z,101016.78
2022-10-17T03:05:30.763Z,101026.25
2022-10-17T03:10:33.320Z,101028.50
2022-10-17T03:15:35.904Z,101028.06
2022-10-17T03:20:39.855Z,101029.13
2022-10-17T03:25:42.933Z,101037.50
2022-10-17T03:30:45.569Z,101031.59
2022-10-17T03:40:57.177Z,101039.03
2022-10-17T03:46:00.678Z,101036.97
2022-10-17T03:51:07.039Z,101040.47
2022-10-17T03:56:11.033Z,101033.47
2022-10-17T04:01:15.682Z,101031.34
2022-10-17T04:06:20.170Z,101042.22
2022-10-17T04:11:22.759Z,101046.53
2022-10-17T04:16:26.013Z,101037.16
2022-10-17T04:21:30.620Z,101045.25
2022-10-17T04:26:33.316Z,101038.75
2022-10-17T04:31:35.930Z,101052.31
2022-10-17T04:36:39.844Z,101045.91
2022-10-17T04:41:42.498Z,101047.53
2022-10-17T04:46:45.085Z,101043.97
2022-10-17T04:51:48.956Z,101046.09
2022-10-17T04:56:51.697Z,101058.16
2022-10-17T05:01:54.344Z,101063.69
2022-10-17T05:06:58.346Z,101053.25
2022-10-17T05:12:00.941Z,101061.69
2022-10-17T05:17:03.497Z,101065.03
2022-10-17T05:22:07.827Z,101056.22
2022-10-17T05:27:10.407Z,101066.56
2022-10-17T05:32:13.036Z,101072.06
2022-10-17T05:37:17.003Z,101068.78
2022-10-17T05:42:19.699Z,101067.50
2022-10-17T05:47:22.360Z,101064.06
2022-10-17T05:52:26.438Z,101069.84
2022-10-17T05:57:29.215Z,101079.63
2022-10-17T06:02:32.818Z,101087.78
2022-10-17T06:07:39.686Z,101101.91
2022-10-17T06:12:42.398Z,101098.78
2022-10-17T06:17:44.932Z,101117.78
2022-10-17T06:22:48.958Z,101114.28
2022-10-17T06:32:59.334Z,101125.06
2022-10-17T06:38:04.819Z,101123.75
2022-10-17T06:43:07.423Z,101131.88
2022-10-17T06:48:10.200Z,101128.00
2022-10-17T06:53:14.130Z,101128.91
2022-10-17T06:58:16.739Z,101129.50
2022-10-17T07:03:19.269Z,101131.69
2022-10-17T07:08:23.574Z,101136.03
2022-10-17T07:13:26.041Z,101147.72
2022-10-17T07:18:28.771Z,101152.91
2022-10-17T07:23:34.285Z,101157.91
2022-10-17T07:28:38.191Z,101162.13
2022-10-17T07:33:40.878Z,101162.66
2022-10-17T07:38:45.787Z,101163.78
2022-10-17T07:43:48.504Z,101169.13
2022-10-17T07:48:51.228Z,101160.66
2022-10-17T07:53:55.174Z,101158.94
2022-10-17T07:58:59.199Z,101166.13
2022-10-17T08:04:04.120Z,101169.59
2022-10-17T08:09:08.398Z,101174.06
2022-10-17T08:14:11.394Z,101167.72
2022-10-17T08:19:13.935Z,101175.50
2022-10-17T08:24:17.871Z,101176.38
2022-10-17T08:29:22.592Z,101172.19
2022-10-17T08:34:25.206Z,101170.16
2022-10-17T08:39:29.091Z,101164.97
2022-10-17T08:44:47.541Z,101159.13
2022-10-17T08:49:53.993Z,101161.09
2022-10-17T08:54:59.766Z,101158.00
2022-10-17T09:00:02.420Z,101173.50
2022-10-17T09:05:27.891Z,101172.34
2022-10-17T09:10:41.848Z,101165.78
2022-10-17T09:15:56.817Z,101166.91
2022-10-17T09:21:06.457Z,101158.34
2022-10-17T09:26:12.292Z,101154.97
2022-10-17T09:31:22.138Z,101155.22
2022-10-17T09:36:28.676Z,101141.41
2022-10-17T09:41:45.246Z,101146.19
2022-10-17T09:47:02.964Z,101166.06
2022-10-17T09:52:07.566Z,101164.78
2022-10-17T09:57:13.361Z,101151.75
2022-10-17T10:02:19.501Z,101154.06
2022-10-17T10:07:26.909Z,101143.34
2022-10-17T10:12:35.007Z,101152.53
2022-10-17T10:17:41.711Z,101152.25
2022-10-17T10:22:44.613Z,101143.56
2022-10-17T10:27:48.574Z,101137.94
2022-10-17T10:32:51.497Z,101139.13
2022-10-17T10:37:57.455Z,101133.03
2022-10-17T10:43:05.321Z,101130.34
2022-10-17T10:48:21.205Z,101127.91
2022-10-17T10:53:35.434Z,101129.13
2022-10-17T10:58:49.633Z,101122.75
2022-10-17T11:04:02.686Z,101120.91
2022-10-17T11:09:14.756Z,101117.22
2022-10-17T11:14:23.823Z,101119.69
2022-10-17T11:19:34.905Z,101115.47
2022-10-17T11:24:44.859Z,101119.75
2022-10-17T11:29:48.813Z,101115.69
2022-10-17T11:34:57.058Z,101109.13
2022-10-17T11:40:06.470Z,101103.31
2022-10-17T11:45:14.988Z,101102.84
2022-10-17T11:55:48.663Z,101108.06
2022-10-17T12:01:00.364Z,101101.25
2022-10-17T12:06:10.405Z,101118.38
2022-10-17T12:11:24.079Z,101093.63
2022-10-17T12:16:45.715Z,101091.69
2022-10-17T12:21:56.133Z,101078.97
2022-10-17T12:26:58.727Z,101086.44
2022-10-17T12:32:13.448Z,101092.53
2022-10-17T12:37:16.196Z,101090.34
2022-10-17T12:42:34.156Z,101089.56
2022-10-17T12:47:39.999Z,101093.03
2022-10-17T12:53:07.307Z,101088.97
2022-10-17T12:58:15.405Z,101083.50
2022-10-17T13:03:23.069Z,101073.16
2022-10-17T13:08:28.819Z,101079.81
2022-10-17T13:13:39.334Z,101074.09
2022-10-17T13:18:43.662Z,101071.84
2022-10-17T13:23:47.897Z,101073.94
2022-10-17T13:29:03.079Z,101081.50
2022-10-17T13:34:16.446Z,101089.34
2022-10-17T13:39:32.554Z,101084.44
2022-10-17T13:44:44.933Z,101087.75
2022-10-17T13:49:51.610Z,101082.72
2022-10-17T13:55:06.780Z,101081.44
2022-10-17T14:00:19.353Z,101096.28
2022-10-17T14:05:23.996Z,101092.22
2022-10-17T14:10:31.719Z,101088.09
2022-10-17T14:15:36.627Z,101095.25
2022-10-17T14:21:25.547Z,101103.94
2022-10-17T14:26:15.379Z,101087.94
2022-10-17T14:31:30.056Z,101098.88
2022-10-17T14:36:36.065Z,101099.22
2022-10-17T14:41:44.495Z,101102.94
2022-10-17T14:46:51.094Z,101100.44
2022-10-17T14:52:17.661Z,101100.44
2022-10-17T14:57:25.346Z,101105.59
2022-10-17T15:02:31.472Z,101103.22
2022-10-17T15:07:34.305Z,101100.13
2022-10-17T15:12:38.529Z,101109.91
2022-10-17T15:17:41.871Z,101108.53
2022-10-17T15:22:44.682Z,101111.84
2022-10-17T15:27:48.630Z,101110.72
2022-10-17T15:32:52.167Z,101106.81
2022-10-17T15:37:54.996Z,101106.97
2022-10-17T15:42:59.108Z,101119.38
2022-10-17T15:48:06.873Z,101119.03
2022-10-17T15:53:12.666Z,101109.81
2022-10-17T15:58:17.633Z,101116.16
2022-10-17T16:03:23.166Z,101114.72
2022-10-17T16:08:28.438Z,101120.03
2022-10-17T16:13:32.690Z,101129.09
2022-10-17T16:18:35.239Z,101123.25
2022-10-17T16:23:37.799Z,101128.59
2022-10-17T16:28:46.103Z,101129.91
2022-10-17T16:33:50.308Z,101139.19
2022-10-17T16:38:54.101Z,101139.03
2022-10-17T16:43:59.834Z,101140.78
2022-10-17T16:49:02.532Z,101142.19
2022-10-17T16:54:05.350Z,101167.44
2022-10-17T16:59:11.555Z,101167.88
2022-10-17T17:04:14.300Z,101156.47
2022-10-17T17:09:16.928Z,101175.84
2022-10-17T17:14:20.864Z,101181.44
2022-10-17T17:19:23.309Z,101191.88
2022-10-17T17:24:26.090Z,101204.38
2022-10-17T17:29:30.087Z,101211.09
2022-10-17T17:34:36.976Z,101204.94
2022-10-17T17:39:39.787Z,101210.38
2022-10-17T17:44:44.277Z,101209.19
2022-10-17T17:49:47.105Z,101218.09
2022-10-17T17:54:50.224Z,101223.59
2022-10-17T17:59:54.770Z,101229.25
2022-10-17T18:04:57.745Z,101233.72
2022-10-17T18:10:00.578Z,101238.00
2022-10-17T18:15:06.507Z,101240.78
2022-10-17T18:20:09.829Z,101247.41
2022-10-17T18:25:12.664Z,101248.25
2022-10-17T18:30:16.649Z,101260.25
2022-10-17T18:35:19.376Z,101269.34
2022-10-17T18:40:22.192Z,101272.47
2022-10-17T18:45:26.314Z,101265.09
2022-10-17T18:50:28.902Z,101267.59
2022-10-17T18:55:31.939Z,101276.97
2022-10-17T19:00:36.388Z,101280.50
2022-10-17T19:05:40.018Z,101282.94
2022-10-17T19:10:43.887Z,101284.78
2022-10-17T19:15:47.861Z,101286.00
2022-10-17T19:20:52.452Z,101292.44
2022-10-17T19:25:57.066Z,101295.34
2022-10-17T19:31:03.846Z,101301.66
2022-10-17T19:36:08.674Z,101309.50
2022-10-17T19:41:12.915Z,101313.25
2022-10-17T19:46:18.261Z,101306.81
2022-10-17T19:51:24.416Z,101303.19
2022-10-17T19:56:28.913Z,101293.97
2022-10-17T20:01:35.201Z,101309.00
2022-10-17T20:06:38.678Z,101313.28
2022-10-17T20:11:41.515Z,101321.47
2022-10-17T20:16:52.721Z,101322.38
2022-10-17T20:21:55.470Z,101322.88
2022-10-17T20:26:57.981Z,101326.78
2022-10-17T20:32:02.234Z,101334.00
2022-10-17T20:37:04.998Z,101347.25
2022-10-17T20:42:07.743Z,101350.97
2022-10-17T20:47:16.177Z,101354.53
2022-10-17T20:52:19.136Z,101341.63
2022-10-17T20:57:21.984Z,101342.50
2022-10-17T21:02:25.963Z,101356.09
2022-10-17T21:07:28.832Z,101351.56
2022-10-17T21:12:50.083Z,101356.25
2022-10-17T21:17:55.722Z,101347.06
2022-10-17T21:23:00.526Z,101350.44
2022-10-17T21:28:03.216Z,101348.50
2022-10-17T21:33:07.149Z,101350.06
2022-10-17T21:38:09.750Z,101347.75
2022-10-17T21:43:12.371Z,101347.53
2022-10-17T21:48:16.303Z,101349.19
2022-10-17T21:53:18.943Z,101349.19
2022-10-17T21:58:22.715Z,101353.53
2022-10-17T22:03:26.674Z,101353.84
2022-10-17T22:08:29.815Z,101356.13
2022-10-17T22:13:32.342Z,101364.41
2022-10-17T22:18:36.753Z,101361.13
2022-10-17T22:23:39.305Z,101363.69
2022-10-17T22:28:42.600Z,101364.81
2022-10-17T22:33:46.615Z,101374.78
2022-10-17T22:38:49.238Z,101379.75
2022-10-17T22:43:51.804Z,101383.13
2022-10-17T22:48:55.708Z,101381.84
2022-10-17T22:53:58.232Z,101366.84
2022-10-17T22:59:00.742Z,101362.28
2022-10-17T23:04:04.636Z,101356.50
2022-10-17T23:09:07.260Z,101362.00
2022-10-17T23:14:09.805Z,101358.78
2022-10-17T23:19:13.722Z,101353.41
2022-10-17T23:24:16.325Z,101367.72
2022-10-17T23:29:18.912Z,101371.50
2022-10-17T23:34:22.818Z,101370.69
2022-10-17T23:39:25.394Z,101368.53
2022-10-17T23:44:28.097Z,101368.88
2022-10-17T23:49:32.300Z,101365.03
2022-10-17T23:54:34.887Z,101366.88
2022-10-17T23:59:37.424Z,101359.94
